sensor_id;sensor_type;location;lat;lon;timestamp;pressure;altitude;pressure_sealevel;temperature;humidity
12722;BME280;6425;50.316;8.114;2023-07-09T00:00:00;993;;;19.8;69.1
12722;BME280;6425;50.316;8.114;2023-07-09T00:03:00;993;;;19.7;69.5
12722;BME280;6425;50.316;8.114;2023-07-09T00:06:00;993;;;19.8;69.6
12722;BME280;6425;50.316;8.114;2023-07-09T00:09:00;993;;;20;68.4
12722;BME280;6425;50.316;8.114;2023-07-09T00:12:00;993;;;19.9;68.8
12722;BME280;6425;50.316;8.114;2023-07-09T00:15:00;993;;;19.7;69.8
12722;BME280;6425;50.316;8.114;2023-07-09T00:18:00;993;;;19.7;69.7
12722;BME280;6425;50.316;8.114;2023-07-09T00:21:00;993;;;19.9;69.4
12722;BME280;6425;50.316;8.114;2023-07-09T00:24:00;993;;;20.1;68
12722;BME280;6425;50.316;8.114;2023-07-09T00:27:00;993;;;20.4;67
12722;BME280;6425;50.316;8.114;2023-07-09T00:30:00;993;;;20.5;66.5
12722;BME280;6425;50.316;8.114;2023-07-09T00:33:00;993;;;20.5;66.4
12722;BME280;6425;50.316;8.114;2023-07-09T00:36:00;993;;;20.1;67.7
12722;BME280;6425;50.316;8.114;2023-07-09T00:39:00;993;;;20.1;67.5
12722;BME280;6425;50.316;8.114;2023-07-09T00:42:00;993;;;20;67.9
12722;BME280;6425;50.316;8.114;2023-07-09T00:45:00;993;;;20;68.3
12722;BME280;6425;50.316;8.114;2023-07-09T00:48:00;993;;;19.9;68.8
12722;BME280;6425;50.316;8.114;2023-07-09T00:51:00;993;;;19.7;69.9
12722;BME280;6425;50.316;8.114;2023-07-09T00:54:01;993;;;19.6;70.1
12722;BME280;6425;50.316;8.114;2023-07-09T00:57:01;993;;;19.8;69.5
12722;BME280;6425;50.316;8.114;2023-07-09T01:00:02;993;;;19.6;69.9
12722;BME280;6425;50.316;8.114;2023-07-09T01:03:00;993;;;19.2;71.5
12722;BME280;6425;50.316;8.114;2023-07-09T01:06:00;993;;;19;73
12722;BME280;6425;50.316;8.114;2023-07-09T01:09:00;993;;;18.9;73.6
12722;BME280;6425;50.316;8.114;2023-07-09T01:12:00;993;;;18.8;73.4
12722;BME280;6425;50.316;8.114;2023-07-09T01:15:00;993;;;18.7;73.9
12722;BME280;6425;50.316;8.114;2023-07-09T01:18:00;993;;;18.5;74.8
12722;BME280;6425;50.316;8.114;2023-07-09T01:21:01;993;;;18.5;75
12722;BME280;6425;50.316;8.114;2023-07-09T01:24:10;993;;;18.6;74.4
12722;BME280;6425;50.316;8.114;2023-07-09T01:27:00;993;;;18.6;74.2
12722;BME280;6425;50.316;8.114;2023-07-09T01:30:01;993;;;18.6;73.8
12722;BME280;6425;50.316;8.114;2023-07-09T01:33:00;993;;;18.7;73.4
12722;BME280;6425;50.316;8.114;2023-07-09T01:36:00;993;;;18.6;73.5
12722;BME280;6425;50.316;8.114;2023-07-09T01:39:00;993;;;18.8;72.8
12722;BME280;6425;50.316;8.114;2023-07-09T01:42:00;993;;;18.9;72.1
12722;BME280;6425;50.316;8.114;2023-07-09T01:45:00;993;;;19;71.8
12722;BME280;6425;50.316;8.114;2023-07-09T01:48:00;993;;;18.9;71.9
12722;BME280;6425;50.316;8.114;2023-07-09T01:51:00;993;;;18.9;72.1
12722;BME280;6425;50.316;8.114;2023-07-09T01:54:00;993;;;18.8;72.3
12722;BME280;6425;50.316;8.114;2023-07-09T01:57:12;993;;;18.6;73
12722;BME280;6425;50.316;8.114;2023-07-09T02:00:00;993;;;18.6;73.6
12722;BME280;6425;50.316;8.114;2023-07-09T02:03:00;993;;;18.5;74
12722;BME280;6425;50.316;8.114;2023-07-09T02:06:00;993;;;18.8;73.3
12722;BME280;6425;50.316;8.114;2023-07-09T02:09:00;993;;;18.8;71.9
12722;BME280;6425;50.316;8.114;2023-07-09T02:12:00;993;;;18.8;72.2
12722;BME280;6425;50.316;8.114;2023-07-09T02:15:00;993;;;18.9;72
12722;BME280;6425;50.316;8.114;2023-07-09T02:18:00;993;;;18.8;72
12722;BME280;6425;50.316;8.114;2023-07-09T02:21:00;993;;;18.7;72.4
12722;BME280;6425;50.316;8.114;2023-07-09T02:24:00;993;;;18.6;72.8
12722;BME280;6425;50.316;8.114;2023-07-09T02:27:01;993;;;18.4;73.8
12722;BME280;6425;50.316;8.114;2023-07-09T02:30:00;993;;;18.4;73.9
12722;BME280;6425;50.316;8.114;2023-07-09T02:33:00;993;;;18.4;74.3
12722;BME280;6425;50.316;8.114;2023-07-09T02:36:00;993;;;18.2;75.3
12722;BME280;6425;50.316;8.114;2023-07-09T02:39:00;993;;;18.1;75.3
12722;BME280;6425;50.316;8.114;2023-07-09T02:42:00;993;;;17.9;76.3
12722;BME280;6425;50.316;8.114;2023-07-09T02:45:00;993;;;17.8;76.7
12722;BME280;6425;50.316;8.114;2023-07-09T02:48:00;993;;;17.8;77
12722;BME280;6425;50.316;8.114;2023-07-09T02:51:00;993;;;17.8;76.9
12722;BME280;6425;50.316;8.114;2023-07-09T02:54:01;993;;;17.8;76.8
12722;BME280;6425;50.316;8.114;2023-07-09T02:57:00;993;;;17.9;76
12722;BME280;6425;50.316;8.114;2023-07-09T03:00:00;993;;;18.1;75.2
12722;BME280;6425;50.316;8.114;2023-07-09T03:03:00;994;;;18;75.1
12722;BME280;6425;50.316;8.114;2023-07-09T03:06:00;993;;;17.8;74.7
12722;BME280;6425;50.316;8.114;2023-07-09T03:09:00;994;;;17.4;77.4
12722;BME280;6425;50.316;8.114;2023-07-09T03:12:00;994;;;17.5;77.3
12722;BME280;6425;50.316;8.114;2023-07-09T03:15:00;994;;;17.6;76.6
12722;BME280;6425;50.316;8.114;2023-07-09T03:18:00;994;;;17.5;77.2
12722;BME280;6425;50.316;8.114;2023-07-09T03:21:00;994;;;17.1;79.5
12722;BME280;6425;50.316;8.114;2023-07-09T03:24:00;994;;;17.1;79.9
12722;BME280;6425;50.316;8.114;2023-07-09T03:27:00;994;;;17.5;78.5
12722;BME280;6425;50.316;8.114;2023-07-09T03:30:00;994;;;17.5;77.9
12722;BME280;6425;50.316;8.114;2023-07-09T03:33:00;993;;;17.6;77.1
12722;BME280;6425;50.316;8.114;2023-07-09T03:36:00;994;;;17.6;77.7
12722;BME280;6425;50.316;8.114;2023-07-09T03:39:00;994;;;17.8;76.5
12722;BME280;6425;50.316;8.114;2023-07-09T03:42:00;994;;;17.9;76
12722;BME280;6425;50.316;8.114;2023-07-09T03:45:00;994;;;18;74.5
12722;BME280;6425;50.316;8.114;2023-07-09T03:48:00;994;;;18;75.1
12722;BME280;6425;50.316;8.114;2023-07-09T03:51:00;994;;;18.1;74
12722;BME280;6425;50.316;8.114;2023-07-09T03:54:00;994;;;18.1;74.3
12722;BME280;6425;50.316;8.114;2023-07-09T03:57:00;994;;;18.4;73.1
12722;BME280;6425;50.316;8.114;2023-07-09T04:00:00;994;;;18.2;73.4
12722;BME280;6425;50.316;8.114;2023-07-09T04:03:00;994;;;18.3;73.4
12722;BME280;6425;50.316;8.114;2023-07-09T04:06:00;994;;;18;73.4
12722;BME280;6425;50.316;8.114;2023-07-09T04:09:00;994;;;17.1;76.9
12722;BME280;6425;50.316;8.114;2023-07-09T04:12:00;994;;;17.5;77
12722;BME280;6425;50.316;8.114;2023-07-09T04:15:00;994;;;18;75.7
12722;BME280;6425;50.316;8.114;2023-07-09T04:18:00;994;;;18.2;74.2
12722;BME280;6425;50.316;8.114;2023-07-09T04:21:00;994;;;18.1;74.7
12722;BME280;6425;50.316;8.114;2023-07-09T04:24:00;994;;;18;75.7
12722;BME280;6425;50.316;8.114;2023-07-09T04:27:00;994;;;18.2;74.9
12722;BME280;6425;50.316;8.114;2023-07-09T04:30:00;994;;;18.4;74.6
12722;BME280;6425;50.316;8.114;2023-07-09T04:33:00;994;;;18.8;73.3
12722;BME280;6425;50.316;8.114;2023-07-09T04:36:00;994;;;18.8;73
12722;BME280;6425;50.316;8.114;2023-07-09T04:39:00;994;;;19.1;72.1
12722;BME280;6425;50.316;8.114;2023-07-09T04:42:00;994;;;18.5;73.3
12722;BME280;6425;50.316;8.114;2023-07-09T04:45:00;994;;;18.5;73.9
12722;BME280;6425;50.316;8.114;2023-07-09T04:48:00;994;;;18.7;74.1
12722;BME280;6425;50.316;8.114;2023-07-09T04:51:00;994;;;18.9;72.5
12722;BME280;6425;50.316;8.114;2023-07-09T04:54:00;994;;;19.4;71.1
12722;BME280;6425;50.316;8.114;2023-07-09T04:57:00;994;;;20;68.9
12722;BME280;6425;50.316;8.114;2023-07-09T05:00:00;994;;;20.6;66.8
12722;BME280;6425;50.316;8.114;2023-07-09T05:03:00;994;;;21;65.5
12722;BME280;6425;50.316;8.114;2023-07-09T05:06:00;994;;;21.6;63.8
12722;BME280;6425;50.316;8.114;2023-07-09T05:09:00;994;;;22.1;62.4
12722;BME280;6425;50.316;8.114;2023-07-09T05:12:00;994;;;22.6;60.6
12722;BME280;6425;50.316;8.114;2023-07-09T05:15:00;994;;;22.9;59.2
12722;BME280;6425;50.316;8.114;2023-07-09T05:18:00;994;;;23.2;58.4
12722;BME280;6425;50.316;8.114;2023-07-09T05:21:00;994;;;23.5;57.6
12722;BME280;6425;50.316;8.114;2023-07-09T05:24:00;994;;;23.5;57.6
12722;BME280;6425;50.316;8.114;2023-07-09T05:27:00;994;;;24.1;55.7
12722;BME280;6425;50.316;8.114;2023-07-09T05:30:00;994;;;24.8;52.9
12722;BME280;6425;50.316;8.114;2023-07-09T05:33:00;994;;;24.9;51.8
12722;BME280;6425;50.316;8.114;2023-07-09T05:36:00;994;;;24.8;51.7
12722;BME280;6425;50.316;8.114;2023-07-09T05:39:00;994;;;24.8;51.6
12722;BME280;6425;50.316;8.114;2023-07-09T05:42:00;994;;;24.5;52.1
12722;BME280;6425;50.316;8.114;2023-07-09T05:45:00;994;;;24.6;51
12722;BME280;6425;50.316;8.114;2023-07-09T05:48:00;994;;;24.2;51.9
12722;BME280;6425;50.316;8.114;2023-07-09T05:51:00;994;;;24.1;52.1
12722;BME280;6425;50.316;8.114;2023-07-09T05:54:00;994;;;23.9;52.6
12722;BME280;6425;50.316;8.114;2023-07-09T05:57:00;994;;;23.9;52.5
12722;BME280;6425;50.316;8.114;2023-07-09T06:00:00;994;;;23.8;53.4
12722;BME280;6425;50.316;8.114;2023-07-09T06:03:00;994;;;24.1;53.7
12722;BME280;6425;50.316;8.114;2023-07-09T06:06:00;994;;;24.1;54.3
12722;BME280;6425;50.316;8.114;2023-07-09T06:09:00;994;;;24.3;54.1
12722;BME280;6425;50.316;8.114;2023-07-09T06:12:00;994;;;24.6;53.4
12722;BME280;6425;50.316;8.114;2023-07-09T06:15:00;994;;;25.1;52.3
12722;BME280;6425;50.316;8.114;2023-07-09T06:18:00;994;;;25.4;50.6
12722;BME280;6425;50.316;8.114;2023-07-09T06:21:00;994;;;25.6;49.3
12722;BME280;6425;50.316;8.114;2023-07-09T06:24:00;994;;;25.7;50
12722;BME280;6425;50.316;8.114;2023-07-09T06:27:00;994;;;25.3;50.7
12722;BME280;6425;50.316;8.114;2023-07-09T06:30:00;994;;;24.1;53.5
12722;BME280;6425;50.316;8.114;2023-07-09T06:33:00;994;;;24.7;52.7
12722;BME280;6425;50.316;8.114;2023-07-09T06:36:00;994;;;25.2;51.5
12722;BME280;6425;50.316;8.114;2023-07-09T06:39:00;994;;;25.5;50.8
12722;BME280;6425;50.316;8.114;2023-07-09T06:42:00;994;;;25.4;51.3
12722;BME280;6425;50.316;8.114;2023-07-09T06:45:00;994;;;25.8;51.1
12722;BME280;6425;50.316;8.114;2023-07-09T06:48:00;994;;;26.3;50.3
12722;BME280;6425;50.316;8.114;2023-07-09T06:51:00;994;;;25.8;51.6
12722;BME280;6425;50.316;8.114;2023-07-09T06:54:00;994;;;25.7;51.6
12722;BME280;6425;50.316;8.114;2023-07-09T06:57:00;994;;;25.8;51.9
12722;BME280;6425;50.316;8.114;2023-07-09T07:00:00;994;;;25.6;52.2
12722;BME280;6425;50.316;8.114;2023-07-09T07:03:00;994;;;25.3;53.2
12722;BME280;6425;50.316;8.114;2023-07-09T07:06:00;994;;;25.8;52.3
12722;BME280;6425;50.316;8.114;2023-07-09T07:09:00;994;;;25.8;52.8
12722;BME280;6425;50.316;8.114;2023-07-09T07:12:00;994;;;26.2;51.7
12722;BME280;6425;50.316;8.114;2023-07-09T07:15:00;994;;;26.1;51.6
12722;BME280;6425;50.316;8.114;2023-07-09T07:18:00;994;;;26.3;51.6
12722;BME280;6425;50.316;8.114;2023-07-09T07:21:00;994;;;26.9;50.3
12722;BME280;6425;50.316;8.114;2023-07-09T07:24:00;994;;;27.1;49.2
12722;BME280;6425;50.316;8.114;2023-07-09T07:27:00;994;;;27;50.2
12722;BME280;6425;50.316;8.114;2023-07-09T07:30:00;994;;;26.9;50.2
12722;BME280;6425;50.316;8.114;2023-07-09T07:33:00;994;;;27.4;49.6
12722;BME280;6425;50.316;8.114;2023-07-09T07:36:00;994;;;27.6;47.9
12722;BME280;6425;50.316;8.114;2023-07-09T07:39:00;994;;;27.6;48
12722;BME280;6425;50.316;8.114;2023-07-09T07:42:00;994;;;27.9;47.3
12722;BME280;6425;50.316;8.114;2023-07-09T07:45:00;994;;;27.6;47.3
12722;BME280;6425;50.316;8.114;2023-07-09T07:48:00;994;;;27.5;48.5
12722;BME280;6425;50.316;8.114;2023-07-09T07:51:00;994;;;27.7;47.1
12722;BME280;6425;50.316;8.114;2023-07-09T07:54:00;994;;;27.8;47.4
12722;BME280;6425;50.316;8.114;2023-07-09T07:57:00;994;;;27.1;49.3
12722;BME280;6425;50.316;8.114;2023-07-09T08:00:00;994;;;26.5;50.8
12722;BME280;6425;50.316;8.114;2023-07-09T08:03:00;994;;;28.1;47.4
12722;BME280;6425;50.316;8.114;2023-07-09T08:06:00;994;;;29.1;45.1
12722;BME280;6425;50.316;8.114;2023-07-09T08:09:00;994;;;29.8;43.7
12722;BME280;6425;50.316;8.114;2023-07-09T08:12:00;994;;;30.6;42.1
12722;BME280;6425;50.316;8.114;2023-07-09T08:15:00;994;;;30.9;41.2
12722;BME280;6425;50.316;8.114;2023-07-09T08:18:00;993;;;31.3;40.3
12722;BME280;6425;50.316;8.114;2023-07-09T08:21:00;994;;;31.6;40.2
12722;BME280;6425;50.316;8.114;2023-07-09T08:24:00;994;;;32.2;38.7
12722;BME280;6425;50.316;8.114;2023-07-09T08:27:00;994;;;30.6;41.3
12722;BME280;6425;50.316;8.114;2023-07-09T08:30:00;994;;;30.7;41.6
12722;BME280;6425;50.316;8.114;2023-07-09T08:33:00;993;;;31.6;40.2
12722;BME280;6425;50.316;8.114;2023-07-09T08:36:00;994;;;31.4;41
12722;BME280;6425;50.316;8.114;2023-07-09T08:39:00;994;;;30.7;41.7
12722;BME280;6425;50.316;8.114;2023-07-09T08:42:02;993;;;31.6;40.8
12722;BME280;6425;50.316;8.114;2023-07-09T08:45:03;993;;;32;39.7
12722;BME280;6425;50.316;8.114;2023-07-09T08:48:01;993;;;31.6;40.5
12722;BME280;6425;50.316;8.114;2023-07-09T08:51:02;993;;;31;42.1
12722;BME280;6425;50.316;8.114;2023-07-09T08:54:00;993;;;32;39.9
12722;BME280;6425;50.316;8.114;2023-07-09T08:57:14;993;;;32;39.8
12722;BME280;6425;50.316;8.114;2023-07-09T09:00:02;993;;;32.4;38.9
12722;BME280;6425;50.316;8.114;2023-07-09T09:03:00;993;;;32.4;38.5
12722;BME280;6425;50.316;8.114;2023-07-09T09:06:00;993;;;31.5;39.9
12722;BME280;6425;50.316;8.114;2023-07-09T09:09:02;993;;;32;39.1
12722;BME280;6425;50.316;8.114;2023-07-09T09:12:03;993;;;32.6;37.2
12722;BME280;6425;50.316;8.114;2023-07-09T09:15:01;993;;;32.7;37.6
12722;BME280;6425;50.316;8.114;2023-07-09T09:18:09;993;;;32.7;37.2
12722;BME280;6425;50.316;8.114;2023-07-09T09:21:01;993;;;32.9;36.8
12722;BME280;6425;50.316;8.114;2023-07-09T09:24:03;993;;;33;36.3
12722;BME280;6425;50.316;8.114;2023-07-09T09:27:00;993;;;33.7;35.1
12722;BME280;6425;50.316;8.114;2023-07-09T09:30:00;993;;;34.1;34.5
12722;BME280;6425;50.316;8.114;2023-07-09T09:33:01;993;;;34.1;34.3
12722;BME280;6425;50.316;8.114;2023-07-09T09:36:01;993;;;34.4;33.5
12722;BME280;6425;50.316;8.114;2023-07-09T09:39:01;993;;;34.6;33.1
12722;BME280;6425;50.316;8.114;2023-07-09T09:42:00;993;;;35.3;32.5
12722;BME280;6425;50.316;8.114;2023-07-09T09:45:00;993;;;35.5;31.3
12722;BME280;6425;50.316;8.114;2023-07-09T09:48:00;993;;;35.6;31.2
12722;BME280;6425;50.316;8.114;2023-07-09T09:51:02;993;;;35.7;31
12722;BME280;6425;50.316;8.114;2023-07-09T09:54:00;993;;;35.9;30.5
12722;BME280;6425;50.316;8.114;2023-07-09T09:57:00;993;;;36;31.3
12722;BME280;6425;50.316;8.114;2023-07-09T10:00:00;993;;;36;31.6
12722;BME280;6425;50.316;8.114;2023-07-09T10:03:02;993;;;36.8;29.6
12722;BME280;6425;50.316;8.114;2023-07-09T10:06:01;993;;;35.7;31
12722;BME280;6425;50.316;8.114;2023-07-09T10:09:01;993;;;35.3;31.4
12722;BME280;6425;50.316;8.114;2023-07-09T10:12:02;993;;;36;30.2
12722;BME280;6425;50.316;8.114;2023-07-09T10:15:01;993;;;35.9;30.3
12722;BME280;6425;50.316;8.114;2023-07-09T10:18:01;993;;;35.2;30.9
12722;BME280;6425;50.316;8.114;2023-07-09T10:21:04;993;;;34.8;31.8
12722;BME280;6425;50.316;8.114;2023-07-09T10:24:03;993;;;35.6;31
12722;BME280;6425;50.316;8.114;2023-07-09T10:27:00;993;;;36;30.1
12722;BME280;6425;50.316;8.114;2023-07-09T10:30:11;993;;;36.1;29.9
12722;BME280;6425;50.316;8.114;2023-07-09T10:33:02;993;;;35.9;30.2
12722;BME280;6425;50.316;8.114;2023-07-09T10:36:01;993;;;36.4;29.1
12722;BME280;6425;50.316;8.114;2023-07-09T10:39:00;993;;;36.8;28.6
12722;BME280;6425;50.316;8.114;2023-07-09T10:42:00;993;;;35.6;29.4
12722;BME280;6425;50.316;8.114;2023-07-09T10:45:01;993;;;35.1;30.5
12722;BME280;6425;50.316;8.114;2023-07-09T10:48:01;993;;;34.9;30.5
12722;BME280;6425;50.316;8.114;2023-07-09T10:51:00;993;;;34.9;30.7
12722;BME280;6425;50.316;8.114;2023-07-09T10:54:01;993;;;34.8;30.7
12722;BME280;6425;50.316;8.114;2023-07-09T10:57:00;993;;;35.6;29.9
12722;BME280;6425;50.316;8.114;2023-07-09T11:00:00;993;;;36.2;28.8
12722;BME280;6425;50.316;8.114;2023-07-09T11:03:02;993;;;36.7;28.1
12722;BME280;6425;50.316;8.114;2023-07-09T11:06:00;993;;;37.9;26.6
12722;BME280;6425;50.316;8.114;2023-07-09T11:09:00;993;;;37.3;27.3
12722;BME280;6425;50.316;8.114;2023-07-09T11:12:01;993;;;37;27.1
12722;BME280;6425;50.316;8.114;2023-07-09T11:15:01;993;;;37.2;28
12722;BME280;6425;50.316;8.114;2023-07-09T11:18:00;993;;;37.5;26.2
12722;BME280;6425;50.316;8.114;2023-07-09T11:21:00;993;;;38.1;25.7
12722;BME280;6425;50.316;8.114;2023-07-09T11:24:00;993;;;37.6;26.5
12722;BME280;6425;50.316;8.114;2023-07-09T11:27:00;992;;;37.2;26.8
12722;BME280;6425;50.316;8.114;2023-07-09T11:30:00;993;;;37.1;26.8
12722;BME280;6425;50.316;8.114;2023-07-09T11:33:01;992;;;37.1;26.1
12722;BME280;6425;50.316;8.114;2023-07-09T11:36:08;993;;;34.9;29
12722;BME280;6425;50.316;8.114;2023-07-09T11:39:00;992;;;35.3;29.2
12722;BME280;6425;50.316;8.114;2023-07-09T11:42:00;992;;;35.5;28.1
12722;BME280;6425;50.316;8.114;2023-07-09T11:45:02;992;;;34.3;29.9
12722;BME280;6425;50.316;8.114;2023-07-09T11:48:01;992;;;34.9;29.4
12722;BME280;6425;50.316;8.114;2023-07-09T11:51:00;992;;;36.1;27.3
12722;BME280;6425;50.316;8.114;2023-07-09T11:54:00;992;;;37;26.1
12722;BME280;6425;50.316;8.114;2023-07-09T11:57:00;992;;;37.4;25.5
12722;BME280;6425;50.316;8.114;2023-07-09T12:00:00;992;;;35.8;27.4
12722;BME280;6425;50.316;8.114;2023-07-09T12:03:00;992;;;35.1;29.1
12722;BME280;6425;50.316;8.114;2023-07-09T12:06:00;992;;;36.1;25.8
12722;BME280;6425;50.316;8.114;2023-07-09T12:09:00;992;;;36;27.1
12722;BME280;6425;50.316;8.114;2023-07-09T12:12:00;992;;;35.7;26.9
12722;BME280;6425;50.316;8.114;2023-07-09T12:15:04;992;;;36.1;26.3
12722;BME280;6425;50.316;8.114;2023-07-09T12:18:00;992;;;36.7;25.6
12722;BME280;6425;50.316;8.114;2023-07-09T12:21:00;992;;;36.6;26.7
12722;BME280;6425;50.316;8.114;2023-07-09T12:24:00;992;;;35.6;27.4
12722;BME280;6425;50.316;8.114;2023-07-09T12:27:01;992;;;35.1;27.8
12722;BME280;6425;50.316;8.114;2023-07-09T12:30:00;992;;;35.8;27.2
12722;BME280;6425;50.316;8.114;2023-07-09T12:33:00;992;;;36.2;26.6
12722;BME280;6425;50.316;8.114;2023-07-09T12:36:00;992;;;36.8;26.3
12722;BME280;6425;50.316;8.114;2023-07-09T12:39:00;992;;;36.8;25.3
12722;BME280;6425;50.316;8.114;2023-07-09T12:42:00;992;;;36.8;24.7
12722;BME280;6425;50.316;8.114;2023-07-09T12:45:00;992;;;37.2;25.3
12722;BME280;6425;50.316;8.114;2023-07-09T12:48:00;992;;;37.2;24.9
12722;BME280;6425;50.316;8.114;2023-07-09T12:51:00;992;;;37;24.6
12722;BME280;6425;50.316;8.114;2023-07-09T12:54:00;992;;;36.7;26.1
12722;BME280;6425;50.316;8.114;2023-07-09T12:57:00;992;;;35.4;25.6
12722;BME280;6425;50.316;8.114;2023-07-09T13:00:00;992;;;34.9;27.3
12722;BME280;6425;50.316;8.114;2023-07-09T13:03:00;992;;;34.7;27.2
12722;BME280;6425;50.316;8.114;2023-07-09T13:06:00;992;;;35.6;26.5
12722;BME280;6425;50.316;8.114;2023-07-09T13:09:00;992;;;35.7;27.5
12722;BME280;6425;50.316;8.114;2023-07-09T13:12:00;992;;;35.3;26.8
12722;BME280;6425;50.316;8.114;2023-07-09T13:15:00;992;;;35.8;25.5
12722;BME280;6425;50.316;8.114;2023-07-09T13:18:00;992;;;35.4;25.5
12722;BME280;6425;50.316;8.114;2023-07-09T13:21:00;992;;;36.1;24.4
12722;BME280;6425;50.316;8.114;2023-07-09T13:24:00;992;;;35.9;25.9
12722;BME280;6425;50.316;8.114;2023-07-09T13:27:00;992;;;35.9;25.9
12722;BME280;6425;50.316;8.114;2023-07-09T13:30:00;992;;;36.9;24.9
12722;BME280;6425;50.316;8.114;2023-07-09T13:33:00;992;;;37.2;22.8
12722;BME280;6425;50.316;8.114;2023-07-09T13:36:00;992;;;36.6;23.8
12722;BME280;6425;50.316;8.114;2023-07-09T13:39:00;992;;;37.1;23.7
12722;BME280;6425;50.316;8.114;2023-07-09T13:42:00;992;;;37.1;23.5
12722;BME280;6425;50.316;8.114;2023-07-09T13:45:00;992;;;37.2;25
12722;BME280;6425;50.316;8.114;2023-07-09T13:48:00;992;;;37.3;24.7
12722;BME280;6425;50.316;8.114;2023-07-09T13:51:00;991;;;37.1;25.6
12722;BME280;6425;50.316;8.114;2023-07-09T13:54:00;991;;;36;27.1
12722;BME280;6425;50.316;8.114;2023-07-09T13:57:00;991;;;36.3;27.4
12722;BME280;6425;50.316;8.114;2023-07-09T14:00:00;991;;;36.6;25.9
12722;BME280;6425;50.316;8.114;2023-07-09T14:03:00;991;;;36.6;25.9
12722;BME280;6425;50.316;8.114;2023-07-09T14:06:00;991;;;36.5;26.1
12722;BME280;6425;50.316;8.114;2023-07-09T14:09:00;991;;;36.7;25.8
12722;BME280;6425;50.316;8.114;2023-07-09T14:12:00;991;;;36.8;25.3
12722;BME280;6425;50.316;8.114;2023-07-09T14:15:00;991;;;37.1;25.5
12722;BME280;6425;50.316;8.114;2023-07-09T14:18:00;991;;;36.7;25
12722;BME280;6425;50.316;8.114;2023-07-09T14:21:00;991;;;36.2;26
12722;BME280;6425;50.316;8.114;2023-07-09T14:24:00;991;;;36.1;25.9
12722;BME280;6425;50.316;8.114;2023-07-09T14:27:00;991;;;36;25.9
12722;BME280;6425;50.316;8.114;2023-07-09T14:30:00;991;;;35.8;26.1
12722;BME280;6425;50.316;8.114;2023-07-09T14:33:00;991;;;35.6;25.9
12722;BME280;6425;50.316;8.114;2023-07-09T14:36:00;991;;;35.5;26.5
12722;BME280;6425;50.316;8.114;2023-07-09T14:39:00;991;;;35.9;26.5
12722;BME280;6425;50.316;8.114;2023-07-09T14:42:00;991;;;35.9;26.1
12722;BME280;6425;50.316;8.114;2023-07-09T14:45:00;991;;;35.8;26.2
12722;BME280;6425;50.316;8.114;2023-07-09T14:48:00;991;;;36.2;26.9
12722;BME280;6425;50.316;8.114;2023-07-09T14:51:00;991;;;36;26.1
12722;BME280;6425;50.316;8.114;2023-07-09T14:54:00;991;;;35.7;27.3
12722;BME280;6425;50.316;8.114;2023-07-09T14:57:00;991;;;35.2;26.6
12722;BME280;6425;50.316;8.114;2023-07-09T15:00:00;991;;;34.1;27
12722;BME280;6425;50.316;8.114;2023-07-09T15:03:00;991;;;33.7;27.2
12722;BME280;6425;50.316;8.114;2023-07-09T15:06:00;991;;;33.9;27.4
12722;BME280;6425;50.316;8.114;2023-07-09T15:09:00;991;;;34.3;27.5
12722;BME280;6425;50.316;8.114;2023-07-09T15:12:00;991;;;34.1;27.6
12722;BME280;6425;50.316;8.114;2023-07-09T15:15:00;991;;;34.2;27.1
12722;BME280;6425;50.316;8.114;2023-07-09T15:18:00;991;;;33.9;27.6
12722;BME280;6425;50.316;8.114;2023-07-09T15:21:00;991;;;34;27.9
12722;BME280;6425;50.316;8.114;2023-07-09T15:24:00;991;;;34.3;27.3
12722;BME280;6425;50.316;8.114;2023-07-09T15:27:00;991;;;34.6;27.3
12722;BME280;6425;50.316;8.114;2023-07-09T15:30:00;991;;;34.6;27.3
12722;BME280;6425;50.316;8.114;2023-07-09T15:33:00;991;;;34.8;27.6
12722;BME280;6425;50.316;8.114;2023-07-09T15:36:00;991;;;34.7;28.6
12722;BME280;6425;50.316;8.114;2023-07-09T15:39:00;991;;;34.6;27.3
12722;BME280;6425;50.316;8.114;2023-07-09T15:42:00;991;;;34.3;27.4
12722;BME280;6425;50.316;8.114;2023-07-09T15:45:00;992;;;33.7;28.9
12722;BME280;6425;50.316;8.114;2023-07-09T15:48:00;992;;;31.5;33.9
12722;BME280;6425;50.316;8.114;2023-07-09T15:51:00;992;;;30.1;37.7
12722;BME280;6425;50.316;8.114;2023-07-09T15:54:00;992;;;29.7;39.5
12722;BME280;6425;50.316;8.114;2023-07-09T15:57:00;992;;;29.3;40.6
12722;BME280;6425;50.316;8.114;2023-07-09T16:00:00;992;;;29.3;40.9
12722;BME280;6425;50.316;8.114;2023-07-09T16:03:00;992;;;29;41.5
12722;BME280;6425;50.316;8.114;2023-07-09T16:06:00;992;;;28.7;42.3
12722;BME280;6425;50.316;8.114;2023-07-09T16:09:00;993;;;28.4;42.9
12722;BME280;6425;50.316;8.114;2023-07-09T16:12:00;993;;;28.2;43.8
12722;BME280;6425;50.316;8.114;2023-07-09T16:15:00;993;;;27.9;44.6
12722;BME280;6425;50.316;8.114;2023-07-09T16:18:00;993;;;27.9;44.9
12722;BME280;6425;50.316;8.114;2023-07-09T16:21:00;993;;;28;45
12722;BME280;6425;50.316;8.114;2023-07-09T16:24:00;993;;;28.1;44.4
12722;BME280;6425;50.316;8.114;2023-07-09T16:27:00;993;;;27.9;44.6
12722;BME280;6425;50.316;8.114;2023-07-09T16:30:00;993;;;27.6;45.3
12722;BME280;6425;50.316;8.114;2023-07-09T16:33:00;993;;;26.9;46.5
12722;BME280;6425;50.316;8.114;2023-07-09T16:36:00;993;;;26.5;47.7
12722;BME280;6425;50.316;8.114;2023-07-09T16:39:00;993;;;26.5;48.2
12722;BME280;6425;50.316;8.114;2023-07-09T16:42:00;993;;;26.6;48.6
12722;BME280;6425;50.316;8.114;2023-07-09T16:45:00;993;;;26.5;49.2
12722;BME280;6425;50.316;8.114;2023-07-09T16:48:00;993;;;26.4;50.2
12722;BME280;6425;50.316;8.114;2023-07-09T16:51:00;993;;;26.1;51.2
12722;BME280;6425;50.316;8.114;2023-07-09T16:54:00;993;;;25.9;52.5
12722;BME280;6425;50.316;8.114;2023-07-09T16:57:00;993;;;25.7;53.4
12722;BME280;6425;50.316;8.114;2023-07-09T17:00:20;993;;;26;52.9
12722;BME280;6425;50.316;8.114;2023-07-09T17:03:02;993;;;25.9;53.7
12722;BME280;6425;50.316;8.114;2023-07-09T17:06:00;992;;;25.9;54
12722;BME280;6425;50.316;8.114;2023-07-09T17:09:00;992;;;26;54.1
12722;BME280;6425;50.316;8.114;2023-07-09T17:12:00;992;;;25.9;54.4
12722;BME280;6425;50.316;8.114;2023-07-09T17:15:00;992;;;25.9;54.7
12722;BME280;6425;50.316;8.114;2023-07-09T17:18:00;992;;;25.9;54.9
12722;BME280;6425;50.316;8.114;2023-07-09T17:21:01;992;;;26.1;54.3
12722;BME280;6425;50.316;8.114;2023-07-09T17:24:00;992;;;26.2;54
12722;BME280;6425;50.316;8.114;2023-07-09T17:27:00;992;;;26.1;54.1
12722;BME280;6425;50.316;8.114;2023-07-09T17:30:00;992;;;26.1;54.4
12722;BME280;6425;50.316;8.114;2023-07-09T17:33:00;992;;;26.1;54.5
12722;BME280;6425;50.316;8.114;2023-07-09T17:36:00;992;;;26.3;54.4
12722;BME280;6425;50.316;8.114;2023-07-09T17:39:00;992;;;25.9;55.4
12722;BME280;6425;50.316;8.114;2023-07-09T17:42:00;992;;;25.3;57.3
12722;BME280;6425;50.316;8.114;2023-07-09T17:45:00;992;;;25.2;57.6
12722;BME280;6425;50.316;8.114;2023-07-09T17:48:00;992;;;25.5;56.7
12722;BME280;6425;50.316;8.114;2023-07-09T17:51:00;992;;;26;55.4